createdAt,value
2023-02-14T00:01:23.257Z,3.25
2023-02-14T00:04:26.259Z,3.25
2023-02-14T00:07:27.352Z,3.25
2023-02-14T00:10:28.314Z,3.25
2023-02-14T00:13:29.262Z,3.26
2023-02-14T00:16:29.333Z,3.27
2023-02-14T00:19:30.268Z,3.26
2023-02-14T00:22:32.261Z,3.23
2023-02-14T00:25:33.470Z,3.24
2023-02-14T00:28:33.277Z,3.24
2023-02-14T00:31:34.568Z,3.27
2023-02-14T00:34:42.340Z,3.28
2023-02-14T00:37:43.304Z,3.29
2023-02-14T00:40:44.375Z,3.30
2023-02-14T00:43:44.359Z,3.30
2023-02-14T00:46:45.503Z,3.30
2023-02-14T00:49:45.301Z,3.32
2023-02-14T00:52:45.335Z,3.34
2023-02-14T00:55:45.401Z,3.32
2023-02-14T00:58:46.511Z,3.30
2023-02-14T01:01:47.450Z,3.33
2023-02-14T01:04:47.377Z,3.35
2023-02-14T01:07:48.340Z,3.35
2023-02-14T01:10:50.329Z,3.35
2023-02-14T01:13:53.562Z,3.36
2023-02-14T01:16:54.917Z,3.35
2023-02-14T01:19:56.453Z,3.34
2023-02-14T01:23:05.378Z,3.38
2023-02-14T01:26:05.416Z,3.37
2023-02-14T01:29:06.364Z,3.36
2023-02-14T01:32:07.563Z,3.37
2023-02-14T01:35:13.469Z,3.36
2023-02-14T01:38:17.674Z,3.36
2023-02-14T01:41:19.447Z,3.37
2023-02-14T01:44:41.541Z,3.37
2023-02-14T01:47:43.444Z,3.37
2023-02-14T01:50:38.552Z,3.39
2023-02-14T01:53:40.525Z,3.38
2023-02-14T01:56:43.509Z,3.36
2023-02-14T01:59:47.467Z,3.36
2023-02-14T02:02:47.542Z,3.36
2023-02-14T02:05:54.433Z,3.34
2023-02-14T02:09:37.465Z,3.34
2023-02-14T02:12:37.487Z,3.35
2023-02-14T02:15:39.486Z,3.35
2023-02-14T02:18:48.485Z,3.36
2023-02-14T02:22:13.472Z,3.37
2023-02-14T02:25:34.489Z,3.40
2023-02-14T02:28:56.498Z,3.35
2023-02-14T02:32:07.729Z,3.34
2023-02-14T02:35:28.505Z,3.36
2023-02-14T02:38:41.587Z,3.36
2023-02-14T02:42:10.619Z,3.34
2023-02-14T02:45:26.556Z,3.31
2023-02-14T02:48:29.604Z,3.31
2023-02-14T02:51:51.559Z,3.28
2023-02-14T02:54:55.538Z,3.28
2023-02-14T02:57:56.544Z,3.30
2023-02-14T03:00:57.862Z,3.30
2023-02-14T03:04:17.540Z,3.28
2023-02-14T03:07:36.674Z,3.29
2023-02-14T03:10:43.605Z,3.29
2023-02-14T03:13:45.759Z,3.25
2023-02-14T03:17:14.250Z,3.23
2023-02-14T03:20:27.622Z,3.24
2023-02-14T03:23:43.586Z,3.23
2023-02-14T03:27:00.621Z,3.19
2023-02-14T03:30:18.626Z,3.17
2023-02-14T03:33:31.720Z,3.13
2023-02-14T03:36:33.631Z,3.06
2023-02-14T03:39:36.626Z,2.98
2023-02-14T03:42:42.641Z,2.93
2023-02-14T03:45:48.633Z,2.88
2023-02-14T03:48:49.625Z,2.83
2023-02-14T03:51:49.600Z,2.74
2023-02-14T03:54:49.637Z,2.67
2023-02-14T03:58:11.677Z,2.62
2023-02-14T04:01:16.738Z,2.58
2023-02-14T04:04:19.634Z,2.52
2023-02-14T04:07:29.666Z,2.48
2023-02-14T04:10:29.736Z,2.42
2023-02-14T04:13:31.694Z,2.36
2023-02-14T04:16:31.690Z,2.33
2023-02-14T04:19:31.673Z,2.32
2023-02-14T04:22:31.724Z,2.31
2023-02-14T04:25:33.695Z,2.29
2023-02-14T04:28:33.738Z,2.29
2023-02-14T04:31:33.859Z,2.30
2023-02-14T04:34:33.741Z,2.32
2023-02-14T04:37:33.713Z,2.34
2023-02-14T04:40:35.787Z,2.35
2023-02-14T04:43:35.717Z,2.35
2023-02-14T04:46:38.035Z,2.36
2023-02-14T04:49:38.779Z,2.37
2023-02-14T04:52:39.844Z,2.35
2023-02-14T04:55:39.824Z,2.38
2023-02-14T04:58:42.161Z,2.38
2023-02-14T05:01:42.797Z,2.36
2023-02-14T05:04:44.745Z,2.35
2023-02-14T05:07:44.738Z,2.35
2023-02-14T05:10:46.755Z,2.34
2023-02-14T05:13:47.766Z,2.34
2023-02-14T05:16:48.924Z,2.33
2023-02-14T05:19:53.087Z,2.35
2023-02-14T05:22:54.972Z,2.35
2023-02-14T05:25:54.808Z,2.34
2023-02-14T05:28:57.836Z,2.33
2023-02-14T05:31:59.964Z,2.34
2023-02-14T05:35:03.489Z,2.34
2023-02-14T05:38:04.827Z,2.36
2023-02-14T05:41:07.824Z,2.39
2023-02-14T05:44:12.575Z,2.37
2023-02-14T05:47:17.851Z,2.38
2023-02-14T05:50:22.875Z,2.41
2023-02-14T05:53:24.347Z,2.42
2023-02-14T05:56:25.835Z,2.43
2023-02-14T05:59:25.926Z,2.45
2023-02-14T06:02:26.026Z,2.44
2023-02-14T06:05:19.907Z,2.47
2023-02-14T06:08:20.880Z,2.50
2023-02-14T06:11:20.949Z,2.50
2023-02-14T06:14:22.902Z,2.55
2023-02-14T06:17:23.897Z,2.59
2023-02-14T06:20:24.851Z,2.62
2023-02-14T06:23:24.968Z,2.64
2023-02-14T06:26:24.942Z,2.69
2023-02-14T06:29:24.913Z,2.76
2023-02-14T06:32:24.910Z,2.79
2023-02-14T06:35:24.970Z,2.80
2023-02-14T06:38:26.040Z,2.81
2023-02-14T06:41:26.926Z,2.90
2023-02-14T06:44:26.900Z,3.28
2023-02-14T06:47:28.130Z,4.18
2023-02-14T06:50:28.916Z,4.93
2023-02-14T06:53:29.952Z,5.24
2023-02-14T06:56:29.964Z,5.27
2023-02-14T06:59:29.975Z,5.14
2023-02-14T07:02:32.367Z,4.96
2023-02-14T07:05:33.049Z,4.87
2023-02-14T07:08:39.960Z,5.29
2023-02-14T07:11:40.982Z,5.52
2023-02-14T07:14:42.232Z,5.31
2023-02-14T07:17:43.978Z,5.10
2023-02-14T07:20:44.983Z,5.65
2023-02-14T07:23:48.268Z,6.08
2023-02-14T07:27:02.585Z,6.34
2023-02-14T07:30:07.072Z,7.13
2023-02-14T07:33:07.021Z,7.24
2023-02-14T07:36:10.004Z,7.26
2023-02-14T07:39:11.004Z,7.72
2023-02-14T07:42:11.986Z,8.06
2023-02-14T07:45:21.522Z,8.29
2023-02-14T07:48:22.037Z,8.08
2023-02-14T07:51:23.091Z,7.71
2023-02-14T07:54:24.027Z,7.30
2023-02-14T07:57:25.117Z,6.81
2023-02-14T08:00:25.431Z,6.43
2023-02-14T08:03:33.170Z,6.14
2023-02-14T08:06:34.108Z,5.78
2023-02-14T08:09:34.153Z,5.54
2023-02-14T08:12:56.119Z,5.48
2023-02-14T08:16:12.112Z,5.35
2023-02-14T08:19:12.229Z,5.37
2023-02-14T08:22:14.257Z,5.47
2023-02-14T08:25:14.188Z,5.49
2023-02-14T08:28:17.508Z,5.39
2023-02-14T08:31:30.050Z,5.26
2023-02-14T08:34:42.631Z,5.17
2023-02-14T08:37:45.356Z,5.09
2023-02-14T08:40:45.144Z,5.03
2023-02-14T08:43:46.139Z,5.03
2023-02-14T08:46:46.138Z,5.01
2023-02-14T08:49:46.113Z,5.06
2023-02-14T08:52:47.223Z,5.08
2023-02-14T08:55:48.218Z,4.93
2023-02-14T08:58:49.231Z,4.84
2023-02-14T09:01:50.192Z,4.88
2023-02-14T09:04:51.204Z,4.82
2023-02-14T09:07:52.214Z,4.84
2023-02-14T09:10:53.126Z,4.82
2023-02-14T09:13:55.528Z,4.84
2023-02-14T09:16:58.301Z,4.86
2023-02-14T09:19:59.226Z,4.86
2023-02-14T09:23:05.825Z,4.81
2023-02-14T09:26:18.280Z,4.71
2023-02-14T09:29:19.197Z,4.66
2023-02-14T09:32:21.267Z,4.59
2023-02-14T09:35:21.261Z,4.51
2023-02-14T09:38:27.220Z,4.39
2023-02-14T09:41:42.224Z,4.33
2023-02-14T09:44:56.470Z,4.21
2023-02-14T09:48:21.272Z,4.13
2023-02-14T09:51:31.321Z,4.07
2023-02-14T09:54:40.236Z,4.04
2023-02-14T09:58:06.260Z,4.10
2023-02-14T10:01:10.328Z,4.17
2023-02-14T10:04:33.230Z,4.24
2023-02-14T10:07:40.267Z,4.37
2023-02-14T10:10:55.285Z,4.59
2023-02-14T10:14:04.286Z,5.28
2023-02-14T10:17:07.339Z,5.84
2023-02-14T10:20:11.262Z,6.00
2023-02-14T10:23:18.423Z,6.20
2023-02-14T10:26:22.251Z,6.42
2023-02-14T10:29:26.305Z,6.52
2023-02-14T10:32:28.279Z,6.48
2023-02-14T10:35:47.506Z,6.60
2023-02-14T10:39:11.306Z,6.79
2023-02-14T10:42:44.031Z,6.78
2023-02-14T10:46:02.340Z,6.38
2023-02-14T10:49:15.170Z,6.09
2023-02-14T10:52:28.331Z,6.01
2023-02-14T10:55:36.331Z,6.57
2023-02-14T10:58:36.322Z,6.92
2023-02-14T11:01:36.378Z,6.89
2023-02-14T11:04:36.340Z,6.90
2023-02-14T11:07:39.468Z,7.32
2023-02-14T11:10:45.439Z,7.85
2023-02-14T11:13:53.392Z,7.89
2023-02-14T11:16:57.625Z,7.88
2023-02-14T11:20:03.373Z,7.88
2023-02-14T11:23:06.429Z,7.74
2023-02-14T11:26:08.396Z,8.02
2023-02-14T11:29:14.393Z,8.21
2023-02-14T11:32:22.908Z,8.08
2023-02-14T11:35:33.776Z,7.94
2023-02-14T11:38:48.407Z,7.85
2023-02-14T11:42:06.779Z,7.75
2023-02-14T11:45:09.424Z,7.27
2023-02-14T11:48:41.444Z,6.84
2023-02-14T11:51:42.467Z,6.50
2023-02-14T11:54:50.524Z,6.26
2023-02-14T11:57:51.668Z,5.97
2023-02-14T12:00:52.503Z,5.82
2023-02-14T12:03:57.509Z,5.63
2023-02-14T12:07:01.689Z,5.45
2023-02-14T12:10:03.764Z,5.32
2023-02-14T12:13:07.660Z,5.12
2023-02-14T12:16:12.582Z,4.95
2023-02-14T12:19:17.074Z,4.89
2023-02-14T12:22:19.764Z,4.78
2023-02-14T12:25:37.498Z,4.72
2023-02-14T12:28:56.185Z,4.73
2023-02-14T12:32:01.497Z,4.70
2023-02-14T12:35:16.674Z,4.68
2023-02-14T12:38:51.893Z,4.67
2023-02-14T12:42:14.899Z,4.70
2023-02-14T12:45:26.038Z,4.71
2023-02-14T12:48:47.068Z,4.62
2023-02-14T12:51:58.417Z,4.56
2023-02-14T12:55:06.697Z,4.64
2023-02-14T12:58:27.122Z,4.73
2023-02-14T13:01:54.825Z,4.84
2023-02-14T13:05:10.040Z,4.81
2023-02-14T13:08:15.776Z,4.75
2023-02-14T13:11:46.751Z,4.68
2023-02-14T13:14:54.661Z,4.72
2023-02-14T13:17:58.890Z,4.91
2023-02-14T13:21:14.788Z,5.01
2023-02-14T13:24:33.726Z,4.96
2023-02-14T13:27:35.811Z,4.78
2023-02-14T13:30:37.825Z,4.60
2023-02-14T13:33:59.214Z,4.44
2023-02-14T13:37:01.054Z,4.29
2023-02-14T13:40:09.078Z,4.24
2023-02-14T13:43:13.761Z,4.20
2023-02-14T13:46:14.667Z,4.16
2023-02-14T13:49:43.848Z,4.28
2023-02-14T13:52:52.777Z,4.46
2023-02-14T13:56:01.956Z,4.44
2023-02-14T13:59:16.674Z,4.34
2023-02-14T14:02:54.692Z,4.22
2023-02-14T14:05:55.710Z,4.07
2023-02-14T14:09:02.688Z,3.94
2023-02-14T14:12:03.699Z,3.83
2023-02-14T14:15:17.660Z,3.71
2023-02-14T14:18:50.711Z,3.62
2023-02-14T14:21:54.811Z,3.51
2023-02-14T14:25:03.775Z,3.37
2023-02-14T14:28:03.719Z,3.26
2023-02-14T14:31:04.795Z,3.20
2023-02-14T14:34:14.733Z,3.13
2023-02-14T14:37:29.747Z,3.04
2023-02-14T14:40:37.844Z,2.99
2023-02-14T14:43:42.759Z,2.90
2023-02-14T14:46:44.848Z,2.78
2023-02-14T14:49:44.932Z,2.66
2023-02-14T14:52:52.782Z,2.55
2023-02-14T14:55:59.080Z,2.43
2023-02-14T14:58:59.744Z,2.31
2023-02-14T15:02:00.768Z,2.22
2023-02-14T15:05:01.026Z,2.12
2023-02-14T15:08:01.746Z,2.02
2023-02-14T15:11:14.817Z,1.94
2023-02-14T15:14:14.826Z,1.88
2023-02-14T15:17:38.837Z,1.83
2023-02-14T15:20:39.902Z,1.76
2023-02-14T15:23:40.889Z,1.71
2023-02-14T15:26:54.960Z,1.67
2023-02-14T15:29:56.026Z,1.62
2023-02-14T15:33:00.861Z,1.57
2023-02-14T15:36:01.016Z,1.53
2023-02-14T15:39:06.526Z,1.50
2023-02-14T15:42:07.866Z,1.51
2023-02-14T15:45:34.841Z,1.56
2023-02-14T15:48:41.891Z,1.63
2023-02-14T15:51:45.927Z,1.67
2023-02-14T15:54:50.998Z,1.70
2023-02-14T15:57:53.830Z,1.71
2023-02-14T16:00:56.896Z,1.69
2023-02-14T16:04:05.923Z,1.69
2023-02-14T16:07:29.267Z,1.70
2023-02-14T16:10:37.924Z,1.72
2023-02-14T16:13:49.884Z,1.73
2023-02-14T16:17:12.398Z,1.74
2023-02-14T16:20:36.387Z,1.69
2023-02-14T16:23:44.887Z,1.65
2023-02-14T16:26:49.878Z,1.65
2023-02-14T16:29:52.018Z,1.64
2023-02-14T16:32:51.987Z,1.61
2023-02-14T16:35:53.937Z,1.58
2023-02-14T16:38:56.919Z,1.55
2023-02-14T16:41:58.180Z,1.53
2023-02-14T16:44:59.922Z,1.50
2023-02-14T16:48:00.935Z,1.47
2023-02-14T16:51:02.230Z,1.48
2023-02-14T16:54:04.191Z,1.46
2023-02-14T16:57:12.951Z,1.43
2023-02-14T17:00:12.983Z,1.42
2023-02-14T17:03:17.198Z,1.42
2023-02-14T17:06:18.193Z,1.44
2023-02-14T17:09:22.971Z,1.45
2023-02-14T17:12:27.949Z,1.44
2023-02-14T17:15:32.961Z,1.40
2023-02-14T17:18:34.197Z,1.35
2023-02-14T17:21:35.034Z,1.29
2023-02-14T17:24:36.004Z,1.24
2023-02-14T17:27:36.968Z,1.16
2023-02-14T17:30:38.980Z,1.08
2023-02-14T17:33:56.075Z,1.00
2023-02-14T17:36:57.086Z,0.93
2023-02-14T17:39:57.996Z,0.89
2023-02-14T17:43:07.809Z,0.84
2023-02-14T17:46:09.071Z,0.80
2023-02-14T17:49:10.128Z,0.76
2023-02-14T17:52:09.999Z,0.73
2023-02-14T17:55:11.093Z,0.74
2023-02-14T17:58:12.231Z,0.79
2023-02-14T18:01:20.317Z,0.83
2023-02-14T18:04:21.073Z,0.86
2023-02-14T18:07:24.108Z,0.89
2023-02-14T18:10:27.055Z,0.93
2023-02-14T18:13:30.450Z,0.99
2023-02-14T18:16:33.275Z,1.04
2023-02-14T18:19:33.212Z,1.09
2023-02-14T18:22:54.105Z,1.12
2023-02-14T18:25:55.570Z,1.13
2023-02-14T18:28:57.232Z,1.16
2023-02-14T18:31:58.476Z,1.18
2023-02-14T18:34:59.070Z,1.19
2023-02-14T18:38:02.073Z,1.20
2023-02-14T18:41:02.259Z,1.18
2023-02-14T18:44:03.113Z,1.18
2023-02-14T18:47:06.103Z,1.18
2023-02-14T18:50:19.121Z,1.19
2023-02-14T18:53:20.114Z,1.22
2023-02-14T18:56:27.551Z,1.25
2023-02-14T18:59:28.590Z,1.26
2023-02-14T19:02:30.224Z,1.28
2023-02-14T19:05:32.170Z,1.28
2023-02-14T19:08:33.152Z,1.29
2023-02-14T19:11:37.607Z,1.30
2023-02-14T19:14:38.247Z,1.31
2023-02-14T19:17:47.174Z,1.32
2023-02-14T19:20:47.201Z,1.36
2023-02-14T19:23:47.563Z,1.40
2023-02-14T19:26:51.368Z,1.43
2023-02-14T19:29:52.789Z,1.47
2023-02-14T19:32:56.158Z,1.51
2023-02-14T19:35:56.191Z,1.54
2023-02-14T19:39:01.178Z,1.55
2023-02-14T19:42:02.241Z,1.54
2023-02-14T19:45:02.263Z,1.56
2023-02-14T19:48:06.213Z,1.56
2023-02-14T19:51:07.407Z,1.57
2023-02-14T19:54:07.236Z,1.56
2023-02-14T20:00:59.811Z,1.55
2023-02-14T20:04:01.151Z,1.51
2023-02-14T20:07:02.117Z,1.45
2023-02-14T20:10:06.547Z,1.37
2023-02-14T20:13:08.083Z,1.30
2023-02-14T20:16:08.643Z,1.25
2023-02-14T20:19:10.141Z,1.23
2023-02-14T20:22:18.180Z,1.22
2023-02-14T20:25:21.168Z,1.20
2023-02-14T20:28:26.366Z,1.20
2023-02-14T20:31:35.329Z,1.19
2023-02-14T20:34:38.341Z,1.14
2023-02-14T20:37:40.225Z,1.12
2023-02-14T20:40:40.494Z,1.11
2023-02-14T20:43:42.369Z,1.12
2023-02-14T20:46:51.467Z,1.15
2023-02-14T20:49:52.134Z,1.18
2023-02-14T20:52:53.292Z,1.21
2023-02-14T20:55:55.209Z,1.22
2023-02-14T20:58:58.338Z,1.23
2023-02-14T21:02:00.193Z,1.24
2023-02-14T21:05:11.000Z,1.26
2023-02-14T21:08:13.230Z,1.29
2023-02-14T21:11:22.147Z,1.30
2023-02-14T21:14:23.324Z,1.30
2023-02-14T21:17:24.260Z,1.30
2023-02-14T21:20:25.367Z,1.30
2023-02-14T21:23:27.769Z,1.31
2023-02-14T21:26:35.272Z,1.33
2023-02-14T21:29:38.263Z,1.35
2023-02-14T21:32:44.047Z,1.34
2023-02-14T21:35:49.316Z,1.35
2023-02-14T21:38:50.249Z,1.37
2023-02-14T21:41:51.274Z,1.37
2023-02-14T21:45:10.249Z,1.34
2023-02-14T21:48:36.364Z,1.34
2023-02-14T21:51:36.254Z,1.34
2023-02-14T21:54:42.259Z,1.33
2023-02-14T21:57:45.752Z,1.33
2023-02-14T22:00:48.339Z,1.29
2023-02-14T22:03:49.264Z,1.27
2023-02-14T22:06:51.444Z,1.24
2023-02-14T22:09:53.296Z,1.22
2023-02-14T22:12:55.768Z,1.19
2023-02-14T22:15:59.395Z,1.18
2023-02-14T22:19:00.346Z,1.19
2023-02-14T22:22:03.380Z,1.18
2023-02-14T22:25:06.370Z,1.13
2023-02-14T22:28:11.392Z,1.08
2023-02-14T22:31:16.359Z,1.02
2023-02-14T22:34:19.216Z,0.98
2023-02-14T22:37:21.897Z,0.94
2023-02-14T22:40:23.445Z,0.89
2023-02-14T22:43:24.374Z,0.84
2023-02-14T22:46:28.602Z,0.80
2023-02-14T22:49:30.334Z,0.77
2023-02-14T22:52:31.388Z,0.75
2023-02-14T22:55:32.376Z,0.77
2023-02-14T22:58:33.108Z,0.80
2023-02-14T23:01:33.464Z,0.82
2023-02-14T23:04:37.391Z,0.84
2023-02-14T23:07:38.344Z,0.85
2023-02-14T23:10:39.382Z,0.86
2023-02-14T23:13:59.403Z,0.86
2023-02-14T23:17:12.408Z,0.85
2023-02-14T23:20:34.520Z,0.86
2023-02-14T23:23:35.410Z,0.89
2023-02-14T23:26:37.360Z,0.91
2023-02-14T23:29:38.442Z,0.94
2023-02-14T23:32:39.392Z,0.98
2023-02-14T23:35:48.442Z,0.99
2023-02-14T23:39:03.662Z,0.98
2023-02-14T23:42:04.441Z,0.99
2023-02-14T23:45:24.689Z,0.97
2023-02-14T23:48:25.465Z,0.91
2023-02-14T23:51:25.474Z,0.88
2023-02-14T23:54:25.488Z,0.87
2023-02-14T23:57:25.692Z,0.86
